Antlers, Colorado
Current Conditions -  °F | °C
As of 5:53 PM on Friday 28 Nov 2014 (Local Time) from KEEO Reporting Station
Clear Clear  
Wind Chill: 44°   Ceiling: Unl
Heat Index: 48°   Visibility: 10mi
Dew Point: 17°   Wind: 9mph
Humidity: 29%   Direction: 270°W
Pressure: 30"   Gusts: NA
Location:  39.7934°N, 108.135°W
Report Text: KEEO 290053Z AUTO 27008KT 10SM CLR 09/M08 A3000 RMK AO2 SLP138 T00891083
Loading
Personal Weather Stations






























Interactive Weather Map New forecast layout! Learn more

10-Day Weather Forecast

Advertisements
Track Severe Weather on mobile